East Haven, Vermont
Current Conditions -  °F | °C
As of 11:15 PM on Wednesday 17 Dec 2014 (Local Time) from KCDA Reporting Station
Drizzle Drizzle  
Wind Chill: 34°   Ceiling: 1200
Heat Index: 34°   Visibility: 7mi
Dew Point: 32°   Wind: 0mph
Humidity: 93%   Direction: NA
Pressure: 29.7"   Gusts: NA
Location:  44.66°N, 71.89°W
Report Text: KCDA 180415Z AUTO 00000KT 7SM DZ BKN012 OVC019 01/00 A2970 RMK AO2 T00100000
Loading
Personal Weather Stations






























Interactive Weather Map New forecast layout! Learn more

10-Day Weather Forecast

Advertisements
Track Severe Weather on mobile